Главная страница
METAR-TAF:

METAR-TAF

Аэропорты :

Казань, Россия

широта: 55-47N, долгота: 049-12E, высота над уровнем моря: м

Текущие метеонаблюдения

Эта сводка был подготовлена 33 минут назад, в 06:00 UTC
Ветер 4 Узел от северно-северо-западный, изменяющийся между западный и северный
Температура 25°C
Влажность 57%
Давление 1024 hPa
Видимость 10 км и более
Нет облачности ниже 1500 м, и нет кучево-дождевой облачности

METAR: UWKD 210600Z 33002MPS 280V360 CAVOK 25/16 Q1024 R29/CLRD70 NOSIG RMK QFE757/1009

Время: 09:33 (06:33 UTC)

Прогноз

Эта сводка был подготовлена 1 час и 38 минут назад, в 04:55 UTC
Прогноз действительный с 21-го 06 UTC до 22-го 06 UTC
Ветер 2 Узел переменных направлений
Видимость 10 км и более
Отдельные облака на высоте 5000 фута

TAF: UWKD 210455Z 2106/2206 VRB01MPS 9999 SCT050 TX29/2112Z TN16/2202Z

Метеонаблюдения и прогнозы для более 4000 аэропортов (сводки METAR и TAF).

Имеющиеся станции представлены на карте желтыми и красными точками.

Чтобы увидеть название станции, наведите на нее мышь.

Затем щелкните, чтобы увидеть метеонаблюдения и метеопрогнозы.

Управление картой: чтобы увеличить масштаб, щелкните зеленые кнопки с черным крестиком; чтобы уменьшить масштаб, щелкните зеленую кнопку с тире; для просмотра соседних карт щелкайте зеленые стрелки.


METAR-TAF: